Time;durP1;ratioP1;P1;durP2;ratioP2;P2;SDS_P1;SDS_P2;PMS_P1;PMS_P2;Temp;Humidity;BMP_temperature;BMP_pressure;BME280_temperature;BME280_humidity;BME280_pressure;Samples;Min_cycle;Max_cycle;Signal;HPM_P1;HPM_P2
2023/06/29 00:00:00;;;;;;;58.73;45.17;;;;;;;;;;5097555;28;20266;-59
2023/06/29 00:02:29;;;;;;;11.00;7.13;;;;;;;;;;5099512;28;20228;-59
2023/06/29 00:04:57;;;;;;;10.47;5.53;;;;;;;;;;5100808;28;20212;-59
2023/06/29 00:07:25;;;;;;;21.30;9.10;;;;;;;;;;5100817;28;20570;-59
2023/06/29 00:09:54;;;;;;;12.17;6.43;;;;;;;;;;5101093;28;20294;-60
2023/06/29 00:12:22;;;;;;;9.50;5.50;;;;;;;;;;5100591;28;20277;-59
2023/06/29 00:14:50;;;;;;;8.47;4.33;;;;;;;;;;5098393;28;20216;-58
2023/06/29 00:17:20;;;;;;;10.03;4.57;;;;;;;;;;5098057;28;20235;-58
2023/06/29 00:19:48;;;;;;;8.73;4.77;;;;;;;;;;5100305;28;20680;-59
2023/06/29 00:22:18;;;;;;;10.43;4.60;;;;;;;;;;5100366;28;20755;-60
2023/06/29 00:24:56;;;;;;;9.77;4.43;;;;;;;;;;5100789;28;20214;-58
2023/06/29 00:27:24;;;;;;;10.00;4.60;;;;;;;;;;5087024;28;20202;-59
2023/06/29 00:29:53;;;;;;;13.50;4.00;;;;;;;;;;5100350;28;20252;-59
2023/06/29 00:32:22;;;;;;;8.37;3.50;;;;;;;;;;5100511;28;20257;-59
2023/06/29 00:34:50;;;;;;;4.60;2.87;;;;;;;;;;5100009;28;20207;-58
2023/06/29 00:37:18;;;;;;;5.93;2.67;;;;;;;;;;5100293;28;20685;-59
2023/06/29 00:39:46;;;;;;;5.47;3.10;;;;;;;;;;5100191;28;20212;-59
2023/06/29 00:42:14;;;;;;;5.47;3.30;;;;;;;;;;5100316;28;20259;-58
2023/06/29 00:44:42;;;;;;;6.57;3.87;;;;;;;;;;5100373;28;20204;-59
2023/06/29 00:47:10;;;;;;;9.47;4.20;;;;;;;;;;5100352;28;20207;-59
2023/06/29 00:49:40;;;;;;;6.23;3.50;;;;;;;;;;5099922;28;20219;-59
2023/06/29 00:52:08;;;;;;;5.23;3.43;;;;;;;;;;5100195;28;20228;-58
2023/06/29 00:54:36;;;;;;;11.07;3.60;;;;;;;;;;5099889;28;20233;-58
2023/06/29 00:57:04;;;;;;;5.57;3.03;;;;;;;;;;5100499;28;20205;-58
2023/06/29 00:59:32;;;;;;;4.50;2.80;;;;;;;;;;5099757;28;20274;-59
2023/06/29 01:02:00;;;;;;;3.53;2.70;;;;;;;;;;5099661;28;20227;-58
2023/06/29 01:04:28;;;;;;;5.77;2.40;;;;;;;;;;5099670;28;20234;-58
2023/06/29 01:07:02;;;;;;;7.40;2.80;;;;;;;;;;5099781;28;20650;-59
2023/06/29 01:09:31;;;;;;;5.27;3.10;;;;;;;;;;5099872;28;20298;-59
2023/06/29 01:11:59;;;;;;;5.20;3.10;;;;;;;;;;5099570;28;20641;-59
2023/06/29 01:14:27;;;;;;;3.80;2.77;;;;;;;;;;5099511;28;20550;-58
2023/06/29 01:16:57;;;;;;;5.00;2.60;;;;;;;;;;5093423;28;20620;-59
2023/06/29 01:19:28;;;;;;;4.90;2.60;;;;;;;;;;5099223;28;20707;-59
2023/06/29 01:22:00;;;;;;;3.67;2.97;;;;;;;;;;5099205;28;20283;-58
2023/06/29 01:24:30;;;;;;;4.63;3.40;;;;;;;;;;5099702;28;20209;-59
2023/06/29 01:27:00;;;;;;;3.00;2.57;;;;;;;;;;5099221;28;20205;-59
2023/06/29 01:29:28;;;;;;;5.63;2.83;;;;;;;;;;5099284;28;20549;-59
2023/06/29 01:31:59;;;;;;;5.03;3.07;;;;;;;;;;5099127;28;20206;-59
2023/06/29 01:34:29;;;;;;;6.40;2.83;;;;;;;;;;5098921;28;20212;-59
2023/06/29 01:37:02;;;;;;;6.97;3.27;;;;;;;;;;5099091;28;20567;-59
2023/06/29 01:39:32;;;;;;;4.57;2.77;;;;;;;;;;5099131;28;20234;-59
2023/06/29 01:42:02;;;;;;;3.97;2.93;;;;;;;;;;5099144;28;20263;-59
2023/06/29 01:44:30;;;;;;;3.60;2.27;;;;;;;;;;5098907;28;20554;-59
2023/06/29 01:46:58;;;;;;;2.80;2.60;;;;;;;;;;5099220;28;20206;-59
2023/06/29 01:49:26;;;;;;;5.47;2.63;;;;;;;;;;5098426;28;20694;-59
2023/06/29 01:51:54;;;;;;;3.40;2.67;;;;;;;;;;5098802;28;20207;-59
2023/06/29 01:54:22;;;;;;;4.20;2.53;;;;;;;;;;5098718;28;20230;-59
2023/06/29 01:56:50;;;;;;;5.13;2.80;;;;;;;;;;5099038;28;20212;-59
2023/06/29 01:59:20;;;;;;;4.53;2.73;;;;;;;;;;5098742;28;20232;-59
2023/06/29 02:01:48;;;;;;;2.40;2.20;;;;;;;;;;5098552;28;20225;-59
2023/06/29 02:04:16;;;;;;;6.60;3.00;;;;;;;;;;5098649;28;20232;-59
2023/06/29 02:06:44;;;;;;;4.67;3.63;;;;;;;;;;5098720;28;20261;-59
2023/06/29 02:09:12;;;;;;;6.37;3.47;;;;;;;;;;5098474;28;20208;-59
2023/06/29 02:11:40;;;;;;;4.70;3.40;;;;;;;;;;5098795;28;20207;-59
2023/06/29 02:14:08;;;;;;;5.40;3.53;;;;;;;;;;5098251;28;20233;-59
2023/06/29 02:16:37;;;;;;;6.67;4.43;;;;;;;;;;5092967;28;20233;-59
2023/06/29 02:19:06;;;;;;;7.67;4.30;;;;;;;;;;5098370;28;20211;-63
2023/06/29 02:21:33;;;;;;;8.03;4.50;;;;;;;;;;5098155;28;20232;-59
2023/06/29 02:24:01;;;;;;;7.93;4.70;;;;;;;;;;5097705;28;20701;-59
2023/06/29 02:26:29;;;;;;;6.80;4.83;;;;;;;;;;5098275;28;20217;-59
2023/06/29 02:28:57;;;;;;;8.27;5.00;;;;;;;;;;5098446;28;20205;-59
2023/06/29 02:31:25;;;;;;;10.03;4.93;;;;;;;;;;5098511;28;20205;-59
2023/06/29 02:33:55;;;;;;;11.90;5.80;;;;;;;;;;5098161;28;20234;-59
2023/06/29 02:36:23;;;;;;;9.60;6.17;;;;;;;;;;5097970;28;20274;-59
2023/06/29 02:38:51;;;;;;;9.97;5.83;;;;;;;;;;5098073;28;20232;-59
2023/06/29 02:41:19;;;;;;;9.70;6.93;;;;;;;;;;5098298;28;20208;-59
2023/06/29 02:43:47;;;;;;;14.93;6.73;;;;;;;;;;5097833;28;20322;-59
2023/06/29 02:46:15;;;;;;;11.67;7.10;;;;;;;;;;5097933;28;20673;-59
2023/06/29 02:48:43;;;;;;;15.93;7.00;;;;;;;;;;5097703;28;20207;-59
2023/06/29 02:51:12;;;;;;;15.10;7.23;;;;;;;;;;5098020;28;20216;-59
2023/06/29 02:53:40;;;;;;;14.87;7.23;;;;;;;;;;5097966;28;20244;-59
2023/06/29 02:56:08;;;;;;;11.27;6.87;;;;;;;;;;5098093;28;20203;-59
2023/06/29 02:58:36;;;;;;;13.63;6.63;;;;;;;;;;5098109;28;20208;-59
2023/06/29 03:01:04;;;;;;;11.23;6.07;;;;;;;;;;5097796;28;20548;-59
2023/06/29 03:03:32;;;;;;;9.97;5.67;;;;;;;;;;5097461;28;20260;-59
2023/06/29 03:06:00;;;;;;;11.27;6.00;;;;;;;;;;5097867;28;20212;-59
2023/06/29 03:08:30;;;;;;;9.37;5.40;;;;;;;;;;5097765;28;20218;-59
2023/06/29 03:10:58;;;;;;;9.77;5.70;;;;;;;;;;5097702;28;20257;-59
2023/06/29 03:13:26;;;;;;;8.13;5.50;;;;;;;;;;5097857;28;20234;-59
2023/06/29 03:15:56;;;;;;;9.53;4.97;;;;;;;;;;5092041;28;20215;-59
2023/06/29 03:18:24;;;;;;;12.43;5.37;;;;;;;;;;5096896;28;20202;-59
2023/06/29 03:20:52;;;;;;;9.57;5.17;;;;;;;;;;5096771;28;20229;-59
2023/06/29 03:23:20;;;;;;;7.87;5.30;;;;;;;;;;5095990;28;20699;-59
2023/06/29 03:25:50;;;;;;;9.97;4.80;;;;;;;;;;5097895;28;20207;-59
2023/06/29 03:28:18;;;;;;;8.57;5.67;;;;;;;;;;5096883;28;20210;-59
2023/06/29 03:30:46;;;;;;;7.83;5.60;;;;;;;;;;5097303;28;20200;-59
2023/06/29 03:33:14;;;;;;;7.77;5.30;;;;;;;;;;5097101;28;20221;-59
2023/06/29 03:35:42;;;;;;;6.70;5.60;;;;;;;;;;5097272;28;20196;-59
2023/06/29 03:38:10;;;;;;;6.43;4.70;;;;;;;;;;5098189;28;20240;-59
2023/06/29 03:40:38;;;;;;;9.60;5.80;;;;;;;;;;5101216;28;20208;-59
2023/06/29 03:43:08;;;;;;;7.57;4.80;;;;;;;;;;5100766;28;20230;-59
2023/06/29 03:45:36;;;;;;;6.63;4.90;;;;;;;;;;5100679;28;20199;-59
2023/06/29 03:48:04;;;;;;;5.43;4.77;;;;;;;;;;5101337;28;20211;-59
2023/06/29 03:50:32;;;;;;;7.67;5.10;;;;;;;;;;5100719;28;20197;-59
2023/06/29 03:53:01;;;;;;;9.43;4.87;;;;;;;;;;5100641;28;20221;-60
2023/06/29 03:55:29;;;;;;;8.90;4.20;;;;;;;;;;5101411;28;20209;-59
2023/06/29 03:57:57;;;;;;;6.17;4.17;;;;;;;;;;5098765;28;20199;-59
2023/06/29 04:00:27;;;;;;;6.13;3.90;;;;;;;;;;5100781;28;20672;-59
2023/06/29 04:02:55;;;;;;;4.40;3.50;;;;;;;;;;5100140;28;20676;-59
2023/06/29 04:05:23;;;;;;;4.40;3.30;;;;;;;;;;5100537;28;20205;-59
2023/06/29 04:07:54;;;;;;;5.30;3.23;;;;;;;;;;5100385;28;20209;-59
2023/06/29 04:10:22;;;;;;;6.33;3.73;;;;;;;;;;5100393;28;20613;-59
2023/06/29 04:12:51;;;;;;;5.63;3.50;;;;;;;;;;5100520;28;20216;-59
2023/06/29 04:15:19;;;;;;;6.60;3.33;;;;;;;;;;5095564;28;20213;-59
2023/06/29 04:17:49;;;;;;;7.87;3.57;;;;;;;;;;5099870;28;20202;-60
2023/06/29 04:20:17;;;;;;;7.30;3.93;;;;;;;;;;5100691;28;20211;-60
2023/06/29 04:22:45;;;;;;;4.27;3.40;;;;;;;;;;5100658;28;20237;-59
2023/06/29 04:25:13;;;;;;;4.80;3.57;;;;;;;;;;5100453;28;20234;-59
2023/06/29 04:27:42;;;;;;;6.67;4.00;;;;;;;;;;5100700;28;20255;-59
2023/06/29 04:30:11;;;;;;;8.00;4.37;;;;;;;;;;5100398;28;20733;-59
2023/06/29 04:32:39;;;;;;;6.97;4.13;;;;;;;;;;5100175;28;20682;-59
2023/06/29 04:35:09;;;;;;;8.40;4.03;;;;;;;;;;5100110;28;20236;-59
2023/06/29 04:37:41;;;;;;;9.53;4.63;;;;;;;;;;5100587;28;20216;-59
2023/06/29 04:40:10;;;;;;;8.13;4.20;;;;;;;;;;5100371;28;20294;-59
2023/06/29 04:42:44;;;;;;;7.57;4.00;;;;;;;;;;5100251;28;20260;-59
2023/06/29 04:45:17;;;;;;;6.50;4.00;;;;;;;;;;5100213;28;20211;-59
2023/06/29 04:47:46;;;;;;;8.13;4.33;;;;;;;;;;5099641;28;20210;-59
2023/06/29 04:50:16;;;;;;;8.30;4.03;;;;;;;;;;5099879;28;20207;-59
2023/06/29 04:52:44;;;;;;;8.47;4.57;;;;;;;;;;5100176;28;20719;-59
2023/06/29 04:55:12;;;;;;;6.47;4.00;;;;;;;;;;5099756;28;20246;-59
2023/06/29 04:57:40;;;;;;;8.30;4.33;;;;;;;;;;5099868;28;20232;-59
2023/06/29 05:00:10;;;;;;;9.10;4.37;;;;;;;;;;5100079;28;20205;-59
2023/06/29 05:02:39;;;;;;;5.63;4.03;;;;;;;;;;5099758;28;20313;-59
2023/06/29 05:05:07;;;;;;;10.00;4.07;;;;;;;;;;5099601;28;20312;-59
2023/06/29 05:07:37;;;;;;;8.63;4.67;;;;;;;;;;5099594;28;20256;-59
2023/06/29 05:10:06;;;;;;;13.63;5.13;;;;;;;;;;5099645;28;20254;-60
2023/06/29 05:12:34;;;;;;;9.77;4.80;;;;;;;;;;5099335;28;20726;-60
2023/06/29 05:15:02;;;;;;;9.43;5.30;;;;;;;;;;5095413;28;20580;-60
2023/06/29 05:17:30;;;;;;;7.50;5.10;;;;;;;;;;5097201;28;20261;-60
2023/06/29 05:20:04;;;;;;;9.83;4.23;;;;;;;;;;5098815;28;20208;-60
2023/06/29 05:22:33;;;;;;;7.27;4.23;;;;;;;;;;5097985;28;20278;-60
2023/06/29 05:25:02;;;;;;;8.70;4.63;;;;;;;;;;5098797;28;20217;-59
2023/06/29 05:27:30;;;;;;;7.97;4.27;;;;;;;;;;5096306;28;20572;-57
2023/06/29 05:29:58;;;;;;;7.67;4.50;;;;;;;;;;5099097;28;20211;-58
2023/06/29 05:32:27;;;;;;;9.13;3.93;;;;;;;;;;5098879;28;20235;-58
2023/06/29 05:34:55;;;;;;;10.13;4.00;;;;;;;;;;5098955;28;20610;-58
2023/06/29 05:37:23;;;;;;;11.57;4.57;;;;;;;;;;5099099;28;20614;-58
2023/06/29 05:39:51;;;;;;;6.40;4.13;;;;;;;;;;5098953;28;20201;-59
2023/06/29 05:42:20;;;;;;;10.53;4.27;;;;;;;;;;5099137;28;20221;-60
2023/06/29 05:44:49;;;;;;;7.90;4.13;;;;;;;;;;5099166;28;20305;-59
2023/06/29 05:47:18;;;;;;;7.70;3.97;;;;;;;;;;5098919;28;20206;-60
2023/06/29 05:49:47;;;;;;;9.57;4.30;;;;;;;;;;5098933;28;20209;-58
2023/06/29 05:52:15;;;;;;;11.37;4.90;;;;;;;;;;5099011;28;20231;-60
2023/06/29 05:54:43;;;;;;;6.50;4.70;;;;;;;;;;5098507;28;20239;-60
2023/06/29 05:57:11;;;;;;;8.63;4.40;;;;;;;;;;5098957;28;20211;-60
2023/06/29 05:59:40;;;;;;;7.20;4.27;;;;;;;;;;5098195;28;20210;-60
2023/06/29 06:02:09;;;;;;;9.60;4.53;;;;;;;;;;5098867;28;20232;-60
2023/06/29 06:04:37;;;;;;;10.43;4.87;;;;;;;;;;5098284;28;20370;-60
2023/06/29 06:07:05;;;;;;;10.13;5.10;;;;;;;;;;5098780;28;20215;-60
2023/06/29 06:09:33;;;;;;;8.20;4.50;;;;;;;;;;5098450;28;20215;-60
2023/06/29 06:12:01;;;;;;;5.97;4.50;;;;;;;;;;5098241;28;20238;-60
2023/06/29 06:14:29;;;;;;;7.23;4.90;;;;;;;;;;5098588;28;20204;-60
2023/06/29 06:16:58;;;;;;;9.30;5.13;;;;;;;;;;5092946;28;20205;-60
2023/06/29 06:19:26;;;;;;;11.67;5.57;;;;;;;;;;5098222;28;20211;-60
2023/06/29 06:21:54;;;;;;;11.00;4.80;;;;;;;;;;5098148;28;20235;-60
2023/06/29 06:24:22;;;;;;;17.00;5.53;;;;;;;;;;5098097;28;20229;-59
2023/06/29 06:26:50;;;;;;;10.23;5.37;;;;;;;;;;5098020;28;20205;-60
2023/06/29 06:29:18;;;;;;;9.90;5.40;;;;;;;;;;5097663;28;20233;-60
2023/06/29 06:31:46;;;;;;;9.33;5.30;;;;;;;;;;5096567;28;20208;-59
2023/06/29 06:34:15;;;;;;;11.23;5.37;;;;;;;;;;5097361;28;20714;-60
2023/06/29 06:36:43;;;;;;;6.47;4.53;;;;;;;;;;5097462;28;20211;-60
2023/06/29 06:39:11;;;;;;;9.77;4.90;;;;;;;;;;5097472;28;20196;-60
2023/06/29 06:41:39;;;;;;;15.50;5.73;;;;;;;;;;5094964;28;20197;-59
2023/06/29 06:44:07;;;;;;;8.90;5.03;;;;;;;;;;5097377;28;20269;-60
2023/06/29 06:46:35;;;;;;;9.97;4.80;;;;;;;;;;5097708;28;20208;-60
2023/06/29 06:49:03;;;;;;;10.30;6.00;;;;;;;;;;5097692;28;20273;-59
2023/06/29 06:51:32;;;;;;;9.33;5.50;;;;;;;;;;5098005;28;20209;-59
2023/06/29 06:54:00;;;;;;;9.20;5.40;;;;;;;;;;5097218;28;20629;-59
2023/06/29 06:56:28;;;;;;;9.43;5.00;;;;;;;;;;5097785;28;20205;-59
2023/06/29 06:58:56;;;;;;;8.93;5.67;;;;;;;;;;5097808;28;20205;-61
2023/06/29 07:01:24;;;;;;;11.17;6.57;;;;;;;;;;5097644;28;20209;-63
2023/06/29 07:03:52;;;;;;;9.80;5.80;;;;;;;;;;5097403;28;20224;-63
2023/06/29 07:06:20;;;;;;;7.63;5.00;;;;;;;;;;5097567;28;20216;-65
2023/06/29 07:08:50;;;;;;;10.70;5.60;;;;;;;;;;5097849;28;20207;-68
2023/06/29 07:11:18;;;;;;;10.73;6.57;;;;;;;;;;5100095;28;20223;-66
2023/06/29 07:13:46;;;;;;;13.27;5.67;;;;;;;;;;5101825;28;20274;-68
2023/06/29 07:16:14;;;;;;;9.13;5.43;;;;;;;;;;5095671;28;20205;-67
2023/06/29 07:18:47;;;;;;;13.20;5.47;;;;;;;;;;5101448;28;20205;-67
2023/06/29 07:21:15;;;;;;;9.23;5.13;;;;;;;;;;5101801;28;20230;-68
2023/06/29 07:23:46;;;;;;;10.07;5.20;;;;;;;;;;5101691;28;20309;-65
2023/06/29 07:26:18;;;;;;;12.40;6.37;;;;;;;;;;5101778;28;20302;-69
2023/06/29 07:28:46;;;;;;;13.50;5.87;;;;;;;;;;5101498;28;20255;-68
2023/06/29 07:31:15;;;;;;;15.03;5.67;;;;;;;;;;5089727;28;20228;-68
2023/06/29 07:33:43;;;;;;;10.17;6.00;;;;;;;;;;5105280;28;20221;-61
2023/06/29 07:36:11;;;;;;;14.17;6.30;;;;;;;;;;5100857;28;20201;-59
2023/06/29 07:38:39;;;;;;;11.17;5.77;;;;;;;;;;5099816;28;20244;-62
2023/06/29 07:41:08;;;;;;;9.03;5.13;;;;;;;;;;5101034;28;20199;-61
2023/06/29 07:43:40;;;;;;;10.87;5.63;;;;;;;;;;5100824;28;20223;-61
2023/06/29 07:46:08;;;;;;;8.33;5.37;;;;;;;;;;5101063;28;20229;-61
2023/06/29 07:48:37;;;;;;;11.70;4.93;;;;;;;;;;5100708;28;20209;-61
2023/06/29 07:51:06;;;;;;;9.97;5.57;;;;;;;;;;5100228;28;20199;-61
2023/06/29 07:53:34;;;;;;;10.50;5.37;;;;;;;;;;5100232;28;20240;-60
2023/06/29 07:56:02;;;;;;;10.43;5.33;;;;;;;;;;5100440;28;20243;-61
2023/06/29 07:58:30;;;;;;;10.90;5.90;;;;;;;;;;5100562;28;20211;-61
2023/06/29 08:01:03;;;;;;;15.50;5.50;;;;;;;;;;5100648;28;20251;-61
2023/06/29 08:03:32;;;;;;;11.87;5.87;;;;;;;;;;5099508;28;20219;-61
2023/06/29 08:06:18;;;;;;;13.33;6.17;;;;;;;;;;5098990;28;20232;-60
2023/06/29 08:08:50;;;;;;;15.57;5.50;;;;;;;;;;5100469;28;20281;-60
2023/06/29 08:11:18;;;;;;;264.83;186.80;;;;;;;;;;5100074;28;20671;-63
2023/06/29 08:13:46;;;;;;;61.30;36.23;;;;;;;;;;5097475;28;20754;-61
2023/06/29 08:16:16;;;;;;;21.87;11.13;;;;;;;;;;5099023;28;20875;-60
2023/06/29 08:18:44;;;;;;;16.27;9.20;;;;;;;;;;5099751;28;20206;-61
2023/06/29 08:21:13;;;;;;;11.27;7.77;;;;;;;;;;5099734;28;20218;-61
2023/06/29 08:23:41;;;;;;;11.80;6.80;;;;;;;;;;5098983;28;20286;-61
2023/06/29 08:26:09;;;;;;;11.87;6.67;;;;;;;;;;5097950;28;20219;-61
2023/06/29 08:28:37;;;;;;;12.60;7.00;;;;;;;;;;5099662;28;20681;-61
2023/06/29 08:31:05;;;;;;;10.00;5.33;;;;;;;;;;5097097;28;20205;-61
2023/06/29 08:33:36;;;;;;;10.90;5.33;;;;;;;;;;5099438;28;20652;-60
2023/06/29 08:36:04;;;;;;;9.57;5.00;;;;;;;;;;5100220;28;20239;-60
2023/06/29 08:38:32;;;;;;;12.37;6.30;;;;;;;;;;5100065;28;20616;-61
2023/06/29 08:41:00;;;;;;;10.30;5.00;;;;;;;;;;5099963;28;20621;-62
2023/06/29 08:43:28;;;;;;;8.60;4.60;;;;;;;;;;5100037;28;20230;-61
2023/06/29 08:45:56;;;;;;;6.33;5.00;;;;;;;;;;5099398;28;20218;-61
2023/06/29 08:48:26;;;;;;;11.80;5.47;;;;;;;;;;5099124;28;20270;-61
2023/06/29 08:50:57;;;;;;;11.73;6.10;;;;;;;;;;5099515;28;20196;-61
2023/06/29 08:53:25;;;;;;;9.00;5.27;;;;;;;;;;5098968;28;20229;-62
2023/06/29 08:55:54;;;;;;;8.67;6.00;;;;;;;;;;5099504;28;20197;-61
2023/06/29 08:58:22;;;;;;;8.37;4.73;;;;;;;;;;5099258;28;20217;-61
2023/06/29 09:00:51;;;;;;;8.77;4.23;;;;;;;;;;5099358;28;20198;-64
2023/06/29 09:03:19;;;;;;;90.80;58.90;;;;;;;;;;5099117;28;20250;-64
2023/06/29 09:05:48;;;;;;;15.07;9.20;;;;;;;;;;5096281;28;20830;-61
2023/06/29 09:08:19;;;;;;;13.47;7.53;;;;;;;;;;5099170;28;20258;-62
2023/06/29 09:10:47;;;;;;;10.60;6.60;;;;;;;;;;5098944;28;20246;-60
2023/06/29 09:13:15;;;;;;;9.90;6.17;;;;;;;;;;5098748;28;20225;-60
2023/06/29 09:15:43;;;;;;;12.47;5.90;;;;;;;;;;5098271;28;20247;-61
2023/06/29 09:18:12;;;;;;;9.70;6.27;;;;;;;;;;5096333;28;20281;-62
2023/06/29 09:20:41;;;;;;;14.43;7.20;;;;;;;;;;5099052;28;20225;-61
2023/06/29 09:23:13;;;;;;;11.20;6.10;;;;;;;;;;5090802;28;20313;-61
2023/06/29 09:25:43;;;;;;;12.53;6.30;;;;;;;;;;5092079;28;20267;-62
2023/06/29 09:31:16;;;;;;;13.90;5.40;;;;;;;;;;5528989;22;20235;-66
2023/06/29 09:33:48;;;;;;;6.03;5.37;;;;;;;;;;5057309;28;20884;-66
2023/06/29 09:36:16;;;;;;;9.02;5.13;;;;;;;;;;5061834;28;20245;-66
2023/06/29 09:38:47;;;;;;;15.57;5.78;;;;;;;;;;5070303;28;20260;-65
2023/06/29 09:41:16;;;;;;;11.55;5.72;;;;;;;;;;5059259;28;20234;-76
2023/06/29 09:43:51;;;;;;;44.50;27.73;;;;;;;;;;5058966;28;20268;-70
2023/06/29 09:46:19;;;;;;;27.48;16.52;;;;;;;;;;5057632;28;20233;-74
2023/06/29 09:48:48;;;;;;;17.02;9.02;;;;;;;;;;5057876;28;20199;-72
2023/06/29 09:51:20;;;;;;;9.38;5.10;;;;;;;;;;5058223;28;20231;-73
2023/06/29 09:53:48;;;;;;;14.03;4.70;;;;;;;;;;5058541;28;20247;-69
2023/06/29 09:56:18;;;;;;;9.73;4.33;;;;;;;;;;5057497;28;20250;-72
2023/06/29 09:58:46;;;;;;;7.07;4.30;;;;;;;;;;5051866;28;20233;-63
2023/06/29 10:01:15;;;;;;;8.93;3.97;;;;;;;;;;5054563;28;20226;-61
2023/06/29 10:03:44;;;;;;;7.37;4.00;;;;;;;;;;5046190;28;20207;-64
2023/06/29 10:06:14;;;;;;;6.43;4.20;;;;;;;;;;5056114;28;20222;-64
2023/06/29 10:08:43;;;;;;;8.37;4.97;;;;;;;;;;5054592;28;20199;-65
2023/06/29 10:11:11;;;;;;;7.77;4.40;;;;;;;;;;5055860;28;20253;-63
2023/06/29 10:13:44;;;;;;;9.40;4.73;;;;;;;;;;5058237;28;20210;-64
2023/06/29 10:16:13;;;;;;;4.55;3.53;;;;;;;;;;5057291;28;20235;-64
2023/06/29 10:18:42;;;;;;;6.88;4.80;;;;;;;;;;5055524;28;20204;-64
2023/06/29 10:21:10;;;;;;;9.48;4.90;;;;;;;;;;5053400;28;20238;-65
2023/06/29 10:23:39;;;;;;;7.68;4.15;;;;;;;;;;5052126;28;20205;-65
2023/06/29 10:26:09;;;;;;;6.43;3.63;;;;;;;;;;5052576;28;20826;-65
2023/06/29 10:28:37;;;;;;;8.07;4.67;;;;;;;;;;5053128;28;20263;-64
2023/06/29 10:31:06;;;;;;;6.03;5.27;;;;;;;;;;5055201;28;20240;-63
2023/06/29 10:33:46;;;;;;;6.70;4.72;;;;;;;;;;5052979;28;20591;-69
2023/06/29 10:36:16;;;;;;;8.90;4.85;;;;;;;;;;5051691;28;20677;-68
2023/06/29 10:38:44;;;;;;;10.70;5.15;;;;;;;;;;5054003;28;20301;-68
2023/06/29 10:41:25;;;;;;;6.97;4.47;;;;;;;;;;5054463;28;20256;-64
2023/06/29 10:43:57;;;;;;;7.37;4.33;;;;;;;;;;5057268;28;20275;-67
2023/06/29 10:46:45;;;;;;;7.00;3.90;;;;;;;;;;5056501;28;20220;-67
2023/06/29 10:49:23;;;;;;;8.80;4.35;;;;;;;;;;5055253;28;20210;-65
2023/06/29 10:51:52;;;;;;;8.02;5.05;;;;;;;;;;5054684;28;20199;-67
2023/06/29 10:54:26;;;;;;;8.88;4.75;;;;;;;;;;5044407;28;20655;-66
2023/06/29 10:56:59;;;;;;;7.57;4.50;;;;;;;;;;5053970;28;20258;-66
2023/06/29 10:59:27;;;;;;;9.47;4.60;;;;;;;;;;5043326;28;20208;-65
2023/06/29 11:01:57;;;;;;;7.63;4.20;;;;;;;;;;5054563;28;20231;-66
2023/06/29 11:04:25;;;;;;;5.60;3.93;;;;;;;;;;5047614;28;20199;-73
2023/06/29 11:06:54;;;;;;;6.50;5.07;;;;;;;;;;5057195;28;20342;-72
2023/06/29 11:09:22;;;;;;;9.40;4.60;;;;;;;;;;5056899;28;20540;-72
2023/06/29 11:11:50;;;;;;;10.80;4.97;;;;;;;;;;5057285;28;20212;-72
2023/06/29 11:14:18;;;;;;;7.60;4.80;;;;;;;;;;5057131;28;20216;-72
2023/06/29 11:16:47;;;;;;;8.97;4.40;;;;;;;;;;5057135;28;20295;-72
2023/06/29 11:19:17;;;;;;;11.73;5.03;;;;;;;;;;5056948;28;20206;-72
2023/06/29 11:21:45;;;;;;;10.82;5.35;;;;;;;;;;5057340;28;20237;-72
2023/06/29 11:24:13;;;;;;;8.07;4.78;;;;;;;;;;5057073;28;20207;-72
2023/06/29 11:26:42;;;;;;;10.50;4.57;;;;;;;;;;5054973;28;20232;-72
2023/06/29 11:29:10;;;;;;;7.75;4.00;;;;;;;;;;5056741;28;20207;-72
2023/06/29 11:31:38;;;;;;;6.72;4.38;;;;;;;;;;5056368;28;20235;-71
2023/06/29 11:34:06;;;;;;;8.87;4.97;;;;;;;;;;5057140;28;20279;-72
2023/06/29 11:36:36;;;;;;;8.70;4.97;;;;;;;;;;5056294;28;20208;-72
2023/06/29 11:39:09;;;;;;;8.87;4.70;;;;;;;;;;5057009;28;20243;-72
2023/06/29 11:41:37;;;;;;;8.43;5.03;;;;;;;;;;5056464;28;20234;-72
2023/06/29 11:44:05;;;;;;;7.28;4.47;;;;;;;;;;5056672;28;20297;-73
2023/06/29 11:46:37;;;;;;;7.30;4.65;;;;;;;;;;5053021;28;20212;-72
2023/06/29 11:49:05;;;;;;;8.82;5.00;;;;;;;;;;5056616;28;20212;-73
2023/06/29 11:51:38;;;;;;;10.43;4.68;;;;;;;;;;5055714;28;20703;-73
2023/06/29 11:54:07;;;;;;;10.77;5.13;;;;;;;;;;5056899;28;20215;-72
2023/06/29 11:56:36;;;;;;;8.07;4.82;;;;;;;;;;5056318;28;20214;-72
2023/06/29 11:59:05;;;;;;;6.97;4.90;;;;;;;;;;5060281;28;20256;-72
2023/06/29 12:01:33;;;;;;;8.32;6.22;;;;;;;;;;5060092;28;20227;-72
2023/06/29 12:04:01;;;;;;;7.30;4.45;;;;;;;;;;5060581;28;20210;-72
2023/06/29 12:06:29;;;;;;;7.60;5.28;;;;;;;;;;5059909;28;20215;-76
2023/06/29 12:08:59;;;;;;;8.13;4.88;;;;;;;;;;5060483;28;20205;-76
2023/06/29 12:11:27;;;;;;;7.30;5.57;;;;;;;;;;5059988;28;20701;-75
2023/06/29 12:13:55;;;;;;;7.70;5.18;;;;;;;;;;5060594;28;20258;-75
2023/06/29 12:16:23;;;;;;;9.32;5.18;;;;;;;;;;5059455;28;20209;-76
2023/06/29 12:18:54;;;;;;;6.75;5.05;;;;;;;;;;5060094;28;20206;-76
2023/06/29 12:21:22;;;;;;;8.27;5.50;;;;;;;;;;5059449;28;20224;-76
2023/06/29 12:23:51;;;;;;;6.68;4.88;;;;;;;;;;5060116;28;20213;-63
2023/06/29 12:26:21;;;;;;;11.55;5.68;;;;;;;;;;5059524;28;20208;-62
2023/06/29 12:28:49;;;;;;;16.15;6.78;;;;;;;;;;5060186;28;20235;-63
2023/06/29 12:31:17;;;;;;;7.80;5.35;;;;;;;;;;5059100;28;20228;-63
2023/06/29 12:33:45;;;;;;;7.88;5.88;;;;;;;;;;5058881;28;20231;-63
2023/06/29 12:36:13;;;;;;;6.70;5.55;;;;;;;;;;5057116;28;20204;-63
2023/06/29 12:38:41;;;;;;;33.95;7.65;;;;;;;;;;5057460;28;20208;-63
2023/06/29 12:41:09;;;;;;;6.93;5.05;;;;;;;;;;5056858;28;20229;-63
2023/06/29 12:43:39;;;;;;;8.50;5.88;;;;;;;;;;5050061;28;20202;-61
2023/06/29 12:46:09;;;;;;;6.95;5.28;;;;;;;;;;5058689;28;20254;-62
2023/06/29 12:48:37;;;;;;;9.60;6.00;;;;;;;;;;5049140;28;20276;-62
2023/06/29 12:51:05;;;;;;;11.63;6.35;;;;;;;;;;5055940;28;20224;-62
2023/06/29 12:53:33;;;;;;;8.45;5.68;;;;;;;;;;5052159;28;20718;-61
2023/06/29 12:56:01;;;;;;;282.90;201.10;;;;;;;;;;5056485;28;20667;-63
2023/06/29 12:58:29;;;;;;;821.17;663.80;;;;;;;;;;5058979;28;20198;-75
2023/06/29 13:01:06;;;;;;;40.55;30.85;;;;;;;;;;5055969;28;20222;-78
2023/06/29 13:03:34;;;;;;;13.52;9.32;;;;;;;;;;5055772;28;20203;-77
2023/06/29 13:06:03;;;;;;;8.02;6.20;;;;;;;;;;5058771;28;20201;-78
2023/06/29 13:08:31;;;;;;;7.50;6.22;;;;;;;;;;5058465;28;20234;-81
2023/06/29 13:10:59;;;;;;;10.70;5.68;;;;;;;;;;5058271;28;20218;-75
2023/06/29 13:13:27;;;;;;;10.90;6.00;;;;;;;;;;5059204;28;20203;-76
2023/06/29 13:15:55;;;;;;;8.48;6.25;;;;;;;;;;5058390;28;20195;-78
2023/06/29 13:18:25;;;;;;;11.50;5.68;;;;;;;;;;5058536;28;20227;-77
2023/06/29 13:20:53;;;;;;;11.13;6.00;;;;;;;;;;5058392;28;20218;-77
2023/06/29 13:23:21;;;;;;;8.27;6.20;;;;;;;;;;5058721;28;20217;-76
2023/06/29 13:25:49;;;;;;;9.93;6.38;;;;;;;;;;5058471;28;20203;-77
2023/06/29 13:28:18;;;;;;;9.23;6.22;;;;;;;;;;5058286;28;20281;-75
2023/06/29 13:30:46;;;;;;;9.10;6.00;;;;;;;;;;5057775;28;20226;-78
2023/06/29 13:33:14;;;;;;;7.65;5.63;;;;;;;;;;5057889;28;20593;-77
2023/06/29 13:35:43;;;;;;;11.27;5.65;;;;;;;;;;5057532;28;20206;-76
2023/06/29 13:38:14;;;;;;;6.93;5.72;;;;;;;;;;5057475;28;20553;-76
2023/06/29 13:40:42;;;;;;;8.40;6.00;;;;;;;;;;5049614;28;20242;-76
2023/06/29 13:43:11;;;;;;;11.07;6.30;;;;;;;;;;5055439;28;20290;-77
2023/06/29 13:45:39;;;;;;;10.18;5.97;;;;;;;;;;5057801;28;20199;-77
2023/06/29 13:48:07;;;;;;;12.50;6.10;;;;;;;;;;5057379;28;20273;-75
2023/06/29 13:50:35;;;;;;;8.20;5.53;;;;;;;;;;5057862;28;20276;-77
2023/06/29 13:53:08;;;;;;;8.40;6.57;;;;;;;;;;5058310;28;20285;-77
2023/06/29 13:55:36;;;;;;;7.75;5.65;;;;;;;;;;5057763;28;20221;-78
2023/06/29 13:58:04;;;;;;;11.35;6.13;;;;;;;;;;5058044;28;20198;-79
2023/06/29 14:00:32;;;;;;;11.25;6.25;;;;;;;;;;5057698;28;20284;-65
2023/06/29 14:03:00;;;;;;;17.50;12.07;;;;;;;;;;5055158;28;20205;-62
2023/06/29 14:05:29;;;;;;;14.55;10.52;;;;;;;;;;5057369;28;20230;-62
2023/06/29 14:07:57;;;;;;;11.23;8.07;;;;;;;;;;5054484;28;20280;-62
2023/06/29 14:10:26;;;;;;;12.93;9.52;;;;;;;;;;5048482;28;20230;-65
2023/06/29 14:12:54;;;;;;;13.85;9.95;;;;;;;;;;5049884;28;20210;-65
2023/06/29 14:15:22;;;;;;;18.77;13.45;;;;;;;;;;5048261;28;20206;-64
2023/06/29 14:17:50;;;;;;;13.23;8.18;;;;;;;;;;5057084;28;20268;-64
2023/06/29 14:20:18;;;;;;;12.85;8.82;;;;;;;;;;5056614;28;20230;-64
2023/06/29 14:22:46;;;;;;;12.80;9.60;;;;;;;;;;5051773;28;20210;-64
2023/06/29 14:25:14;;;;;;;13.63;10.00;;;;;;;;;;5049492;28;20203;-65
2023/06/29 14:27:44;;;;;;;8.82;7.15;;;;;;;;;;5056471;28;20210;-64
2023/06/29 14:30:12;;;;;;;14.77;9.52;;;;;;;;;;5055030;28;20276;-64
2023/06/29 14:32:40;;;;;;;13.43;9.35;;;;;;;;;;5057217;28;20303;-62
2023/06/29 14:35:09;;;;;;;11.13;7.65;;;;;;;;;;5055270;28;20198;-62
2023/06/29 14:37:37;;;;;;;13.80;8.88;;;;;;;;;;5054336;28;20198;-61
2023/06/29 14:40:07;;;;;;;13.52;9.52;;;;;;;;;;5056489;28;20239;-61
2023/06/29 14:42:36;;;;;;;14.05;9.30;;;;;;;;;;5056021;28;20198;-62
2023/06/29 14:45:05;;;;;;;14.07;9.98;;;;;;;;;;5056919;28;20217;-61
2023/06/29 14:47:33;;;;;;;10.60;6.78;;;;;;;;;;5054732;28;20199;-76
2023/06/29 14:50:24;;;;;;;9.07;7.00;;;;;;;;;;5056627;28;20254;-76